sensor_id;sensor_type;location;lat;lon;timestamp;P1;durP1;ratioP1;P2;durP2;ratioP2
41101;SDS011;26845;50.190;19.178;2023-04-03T00:00:47;3.90;;;3.30;;
41101;SDS011;26845;50.190;19.178;2023-04-03T00:03:27;4.60;;;3.10;;
41101;SDS011;26845;50.190;19.178;2023-04-03T00:06:07;4.60;;;3.90;;
41101;SDS011;26845;50.190;19.178;2023-04-03T00:08:47;7.20;;;3.40;;
41101;SDS011;26845;50.190;19.178;2023-04-03T00:11:27;5.20;;;3.30;;
41101;SDS011;26845;50.190;19.178;2023-04-03T00:14:07;4.20;;;3.00;;
41101;SDS011;26845;50.190;19.178;2023-04-03T00:27:27;4.20;;;2.60;;
41101;SDS011;26845;50.190;19.178;2023-04-03T00:30:09;3.30;;;2.10;;
41101;SDS011;26845;50.190;19.178;2023-04-03T00:32:50;3.00;;;2.00;;
41101;SDS011;26845;50.190;19.178;2023-04-03T00:35:27;1.70;;;1.60;;
41101;SDS011;26845;50.190;19.178;2023-04-03T00:38:07;4.00;;;2.40;;
41101;SDS011;26845;50.190;19.178;2023-04-03T00:40:48;3.50;;;1.90;;
41101;SDS011;26845;50.190;19.178;2023-04-03T00:54:07;1.70;;;1.30;;
41101;SDS011;26845;50.190;19.178;2023-04-03T00:56:47;1.80;;;1.40;;
41101;SDS011;26845;50.190;19.178;2023-04-03T00:59:30;1.60;;;1.50;;
41101;SDS011;26845;50.190;19.178;2023-04-03T01:07:29;4.50;;;2.30;;
41101;SDS011;26845;50.190;19.178;2023-04-03T01:15:28;2.90;;;2.40;;
41101;SDS011;26845;50.190;19.178;2023-04-03T01:18:09;3.40;;;2.60;;
41101;SDS011;26845;50.190;19.178;2023-04-03T01:20:59;3.60;;;2.60;;
41101;SDS011;26845;50.190;19.178;2023-04-03T01:23:39;2.90;;;2.30;;
41101;SDS011;26845;50.190;19.178;2023-04-03T01:26:13;2.60;;;2.40;;
41101;SDS011;26845;50.190;19.178;2023-04-03T01:28:54;4.10;;;2.90;;
41101;SDS011;26845;50.190;19.178;2023-04-03T01:34:20;6.50;;;4.90;;
41101;SDS011;26845;50.190;19.178;2023-04-03T01:36:59;3.70;;;2.90;;
41101;SDS011;26845;50.190;19.178;2023-04-03T01:39:39;7.40;;;3.40;;
41101;SDS011;26845;50.190;19.178;2023-04-03T01:42:19;5.90;;;3.30;;
41101;SDS011;26845;50.190;19.178;2023-04-03T01:44:59;4.10;;;3.50;;
41101;SDS011;26845;50.190;19.178;2023-04-03T01:47:39;4.50;;;3.30;;
41101;SDS011;26845;50.190;19.178;2023-04-03T01:50:19;5.70;;;4.10;;
41101;SDS011;26845;50.190;19.178;2023-04-03T01:55:40;4.40;;;4.10;;
41101;SDS011;26845;50.190;19.178;2023-04-03T02:14:20;6.60;;;4.40;;
41101;SDS011;26845;50.190;19.178;2023-04-03T02:17:00;5.70;;;4.50;;
41101;SDS011;26845;50.190;19.178;2023-04-03T02:19:40;7.90;;;5.40;;
41101;SDS011;26845;50.190;19.178;2023-04-03T02:33:00;7.20;;;4.70;;
41101;SDS011;26845;50.190;19.178;2023-04-03T02:35:40;6.20;;;4.40;;
41101;SDS011;26845;50.190;19.178;2023-04-03T02:38:20;6.60;;;4.70;;
41101;SDS011;26845;50.190;19.178;2023-04-03T02:41:04;5.60;;;3.50;;
41101;SDS011;26845;50.190;19.178;2023-04-03T02:43:40;4.70;;;3.40;;
41101;SDS011;26845;50.190;19.178;2023-04-03T02:46:20;6.10;;;3.80;;
41101;SDS011;26845;50.190;19.178;2023-04-03T02:49:00;6.80;;;4.10;;
41101;SDS011;26845;50.190;19.178;2023-04-03T02:51:40;4.20;;;3.70;;
41101;SDS011;26845;50.190;19.178;2023-04-03T02:54:20;5.60;;;4.00;;
41101;SDS011;26845;50.190;19.178;2023-04-03T02:57:00;5.20;;;2.90;;
41101;SDS011;26845;50.190;19.178;2023-04-03T02:59:40;6.20;;;3.80;;
41101;SDS011;26845;50.190;19.178;2023-04-03T03:07:40;6.90;;;3.10;;
41101;SDS011;26845;50.190;19.178;2023-04-03T03:10:20;4.40;;;3.20;;
41101;SDS011;26845;50.190;19.178;2023-04-03T03:13:00;3.90;;;3.30;;
41101;SDS011;26845;50.190;19.178;2023-04-03T03:26:20;4.50;;;3.40;;
41101;SDS011;26845;50.190;19.178;2023-04-03T03:29:00;5.00;;;3.30;;
41101;SDS011;26845;50.190;19.178;2023-04-03T03:31:40;5.80;;;3.30;;
41101;SDS011;26845;50.190;19.178;2023-04-03T03:34:20;4.00;;;3.50;;
41101;SDS011;26845;50.190;19.178;2023-04-03T03:37:00;6.00;;;4.20;;
41101;SDS011;26845;50.190;19.178;2023-04-03T03:45:00;7.30;;;4.10;;
41101;SDS011;26845;50.190;19.178;2023-04-03T03:47:40;4.50;;;3.60;;
41101;SDS011;26845;50.190;19.178;2023-04-03T03:50:20;7.90;;;3.50;;
41101;SDS011;26845;50.190;19.178;2023-04-03T03:53:00;8.80;;;4.60;;
41101;SDS011;26845;50.190;19.178;2023-04-03T04:17:00;5.70;;;3.70;;
41101;SDS011;26845;50.190;19.178;2023-04-03T04:19:40;7.40;;;3.40;;
41101;SDS011;26845;50.190;19.178;2023-04-03T04:25:00;6.40;;;3.60;;
41101;SDS011;26845;50.190;19.178;2023-04-03T04:30:20;4.50;;;2.80;;
41101;SDS011;26845;50.190;19.178;2023-04-03T04:33:00;4.40;;;3.10;;
41101;SDS011;26845;50.190;19.178;2023-04-03T04:41:00;6.20;;;2.80;;
41101;SDS011;26845;50.190;19.178;2023-04-03T04:43:59;5.70;;;3.00;;
41101;SDS011;26845;50.190;19.178;2023-04-03T04:49:19;5.00;;;3.00;;
41101;SDS011;26845;50.190;19.178;2023-04-03T05:10:39;2.70;;;2.30;;
41101;SDS011;26845;50.190;19.178;2023-04-03T05:13:19;4.80;;;3.00;;
41101;SDS011;26845;50.190;19.178;2023-04-03T05:26:58;3.70;;;2.70;;
41101;SDS011;26845;50.190;19.178;2023-04-03T05:29:38;4.70;;;2.20;;
41101;SDS011;26845;50.190;19.178;2023-04-03T06:31:39;5.10;;;3.20;;
41101;SDS011;26845;50.190;19.178;2023-04-03T06:34:19;5.80;;;3.20;;
41101;SDS011;26845;50.190;19.178;2023-04-03T06:36:59;7.70;;;4.40;;
41101;SDS011;26845;50.190;19.178;2023-04-03T06:39:39;7.10;;;3.40;;
41101;SDS011;26845;50.190;19.178;2023-04-03T06:42:19;8.80;;;3.90;;
41101;SDS011;26845;50.190;19.178;2023-04-03T08:00:09;5.70;;;2.60;;
41101;SDS011;26845;50.190;19.178;2023-04-03T08:08:12;8.30;;;3.00;;
41101;SDS011;26845;50.190;19.178;2023-04-03T08:10:52;7.20;;;2.40;;
41101;SDS011;26845;50.190;19.178;2023-04-03T08:13:32;8.80;;;3.50;;
41101;SDS011;26845;50.190;19.178;2023-04-03T08:16:14;3.90;;;2.20;;
41101;SDS011;26845;50.190;19.178;2023-04-03T08:26:52;5.80;;;3.30;;
41101;SDS011;26845;50.190;19.178;2023-04-03T08:29:32;6.10;;;2.40;;
41101;SDS011;26845;50.190;19.178;2023-04-03T08:32:12;4.40;;;2.20;;
41101;SDS011;26845;50.190;19.178;2023-04-03T08:37:34;6.90;;;2.80;;
41101;SDS011;26845;50.190;19.178;2023-04-03T08:40:15;4.10;;;2.50;;
41101;SDS011;26845;50.190;19.178;2023-04-03T09:04:43;4.10;;;1.90;;
41101;SDS011;26845;50.190;19.178;2023-04-03T09:07:30;3.90;;;1.80;;
41101;SDS011;26845;50.190;19.178;2023-04-03T09:10:06;5.60;;;2.10;;
41101;SDS011;26845;50.190;19.178;2023-04-03T09:12:47;2.40;;;1.90;;
41101;SDS011;26845;50.190;19.178;2023-04-03T09:15:26;6.10;;;2.10;;
41101;SDS011;26845;50.190;19.178;2023-04-03T09:18:17;4.80;;;1.90;;
41101;SDS011;26845;50.190;19.178;2023-04-03T09:23:48;3.10;;;1.90;;
41101;SDS011;26845;50.190;19.178;2023-04-03T09:26:33;3.60;;;1.80;;
41101;SDS011;26845;50.190;19.178;2023-04-03T09:29:12;5.10;;;2.30;;
41101;SDS011;26845;50.190;19.178;2023-04-03T09:37:10;4.20;;;2.10;;
41101;SDS011;26845;50.190;19.178;2023-04-03T09:39:51;4.50;;;2.30;;
41101;SDS011;26845;50.190;19.178;2023-04-03T09:42:30;6.20;;;2.30;;
41101;SDS011;26845;50.190;19.178;2023-04-03T09:53:27;3.00;;;1.60;;
41101;SDS011;26845;50.190;19.178;2023-04-03T09:58:34;5.80;;;1.90;;
41101;SDS011;26845;50.190;19.178;2023-04-03T10:01:23;5.10;;;2.40;;
41101;SDS011;26845;50.190;19.178;2023-04-03T10:04:03;4.10;;;1.90;;
41101;SDS011;26845;50.190;19.178;2023-04-03T10:12:06;4.90;;;2.30;;
41101;SDS011;26845;50.190;19.178;2023-04-03T10:14:55;3.80;;;2.10;;
41101;SDS011;26845;50.190;19.178;2023-04-03T10:20:47;4.30;;;2.00;;
41101;SDS011;26845;50.190;19.178;2023-04-03T10:23:31;3.60;;;1.80;;
41101;SDS011;26845;50.190;19.178;2023-04-03T10:34:33;4.00;;;2.20;;
41101;SDS011;26845;50.190;19.178;2023-04-03T10:51:11;3.60;;;1.50;;
41101;SDS011;26845;50.190;19.178;2023-04-03T10:53:39;4.70;;;1.90;;
41101;SDS011;26845;50.190;19.178;2023-04-03T11:01:22;3.00;;;1.70;;
41101;SDS011;26845;50.190;19.178;2023-04-03T11:03:56;4.20;;;1.60;;
41101;SDS011;26845;50.190;19.178;2023-04-03T11:06:37;3.30;;;1.60;;
41101;SDS011;26845;50.190;19.178;2023-04-03T11:14:37;3.00;;;1.80;;
41101;SDS011;26845;50.190;19.178;2023-04-03T11:17:18;3.30;;;1.30;;
41101;SDS011;26845;50.190;19.178;2023-04-03T11:32:54;1.50;;;1.20;;
41101;SDS011;26845;50.190;19.178;2023-04-03T11:35:25;2.60;;;1.30;;
41101;SDS011;26845;50.190;19.178;2023-04-03T11:37:59;1.90;;;1.20;;
41101;SDS011;26845;50.190;19.178;2023-04-03T11:40:33;3.00;;;1.70;;
41101;SDS011;26845;50.190;19.178;2023-04-03T11:46:02;3.50;;;1.40;;
41101;SDS011;26845;50.190;19.178;2023-04-03T11:53:48;2.60;;;1.90;;
41101;SDS011;26845;50.190;19.178;2023-04-03T11:56:28;3.00;;;1.80;;
41101;SDS011;26845;50.190;19.178;2023-04-03T12:09:33;4.80;;;1.80;;
41101;SDS011;26845;50.190;19.178;2023-04-03T12:12:26;2.70;;;1.30;;
41101;SDS011;26845;50.190;19.178;2023-04-03T12:49:26;2.40;;;1.60;;
41101;SDS011;26845;50.190;19.178;2023-04-03T12:54:30;3.60;;;1.60;;
41101;SDS011;26845;50.190;19.178;2023-04-03T12:57:17;2.40;;;1.50;;
41101;SDS011;26845;50.190;19.178;2023-04-03T12:59:47;1.60;;;1.10;;
41101;SDS011;26845;50.190;19.178;2023-04-03T13:02:24;5.00;;;2.70;;
41101;SDS011;26845;50.190;19.178;2023-04-03T13:04:58;3.20;;;1.60;;
41101;SDS011;26845;50.190;19.178;2023-04-03T13:07:34;2.10;;;1.40;;
41101;SDS011;26845;50.190;19.178;2023-04-03T13:12:48;4.10;;;1.90;;
41101;SDS011;26845;50.190;19.178;2023-04-03T13:15:21;2.90;;;1.90;;
41101;SDS011;26845;50.190;19.178;2023-04-03T13:17:54;3.70;;;1.90;;
41101;SDS011;26845;50.190;19.178;2023-04-03T13:20:34;5.10;;;3.00;;
41101;SDS011;26845;50.190;19.178;2023-04-03T13:23:08;5.20;;;2.60;;
41101;SDS011;26845;50.190;19.178;2023-04-03T13:25:42;5.70;;;2.80;;
41101;SDS011;26845;50.190;19.178;2023-04-03T13:28:19;5.10;;;2.40;;
41101;SDS011;26845;50.190;19.178;2023-04-03T13:30:56;6.70;;;3.30;;
41101;SDS011;26845;50.190;19.178;2023-04-03T13:33:29;7.90;;;3.70;;
41101;SDS011;26845;50.190;19.178;2023-04-03T13:43:53;5.50;;;2.30;;
41101;SDS011;26845;50.190;19.178;2023-04-03T13:46:33;3.10;;;1.40;;
41101;SDS011;26845;50.190;19.178;2023-04-03T13:51:59;1.80;;;1.10;;
41101;SDS011;26845;50.190;19.178;2023-04-03T13:54:39;2.70;;;1.10;;
41101;SDS011;26845;50.190;19.178;2023-04-03T13:57:18;2.20;;;1.40;;
41101;SDS011;26845;50.190;19.178;2023-04-03T13:59:59;4.30;;;1.60;;
41101;SDS011;26845;50.190;19.178;2023-04-03T14:02:39;2.10;;;1.50;;
41101;SDS011;26845;50.190;19.178;2023-04-03T14:05:19;2.60;;;1.90;;
41101;SDS011;26845;50.190;19.178;2023-04-03T14:10:39;2.30;;;1.50;;
41101;SDS011;26845;50.190;19.178;2023-04-03T14:13:19;2.20;;;1.50;;
41101;SDS011;26845;50.190;19.178;2023-04-03T14:15:59;2.20;;;1.90;;
41101;SDS011;26845;50.190;19.178;2023-04-03T14:18:39;2.40;;;2.10;;
41101;SDS011;26845;50.190;19.178;2023-04-03T14:21:19;4.20;;;1.60;;
41101;SDS011;26845;50.190;19.178;2023-04-03T14:29:39;3.00;;;1.50;;
41101;SDS011;26845;50.190;19.178;2023-04-03T14:32:20;2.80;;;1.40;;
41101;SDS011;26845;50.190;19.178;2023-04-03T14:34:59;2.40;;;1.60;;
41101;SDS011;26845;50.190;19.178;2023-04-03T14:37:39;3.40;;;1.80;;
41101;SDS011;26845;50.190;19.178;2023-04-03T14:40:20;3.40;;;1.50;;
41101;SDS011;26845;50.190;19.178;2023-04-03T14:42:59;3.40;;;1.60;;
41101;SDS011;26845;50.190;19.178;2023-04-03T14:48:38;3.50;;;1.80;;
41101;SDS011;26845;50.190;19.178;2023-04-03T14:51:36;3.60;;;1.90;;
41101;SDS011;26845;50.190;19.178;2023-04-03T14:56:58;2.70;;;1.50;;
41101;SDS011;26845;50.190;19.178;2023-04-03T14:59:37;2.70;;;1.60;;
41101;SDS011;26845;50.190;19.178;2023-04-03T15:10:36;3.40;;;1.80;;
41101;SDS011;26845;50.190;19.178;2023-04-03T15:13:16;2.70;;;1.70;;
41101;SDS011;26845;50.190;19.178;2023-04-03T15:15:56;2.40;;;1.50;;
41101;SDS011;26845;50.190;19.178;2023-04-03T15:18:37;4.30;;;2.50;;
41101;SDS011;26845;50.190;19.178;2023-04-03T15:32:15;2.70;;;1.70;;
41101;SDS011;26845;50.190;19.178;2023-04-03T15:34:55;2.70;;;1.80;;
41101;SDS011;26845;50.190;19.178;2023-04-03T15:45:56;2.80;;;1.40;;
41101;SDS011;26845;50.190;19.178;2023-04-03T15:48:33;3.30;;;1.80;;
41101;SDS011;26845;50.190;19.178;2023-04-03T16:07:36;2.90;;;1.80;;
41101;SDS011;26845;50.190;19.178;2023-04-03T16:10:15;2.80;;;1.50;;
41101;SDS011;26845;50.190;19.178;2023-04-03T16:15:35;2.20;;;1.50;;
41101;SDS011;26845;50.190;19.178;2023-04-03T16:18:15;2.50;;;1.40;;
41101;SDS011;26845;50.190;19.178;2023-04-03T16:23:35;4.40;;;1.80;;
41101;SDS011;26845;50.190;19.178;2023-04-03T16:26:15;2.40;;;1.50;;
41101;SDS011;26845;50.190;19.178;2023-04-03T16:28:55;2.90;;;1.70;;
41101;SDS011;26845;50.190;19.178;2023-04-03T16:31:35;3.20;;;1.80;;
41101;SDS011;26845;50.190;19.178;2023-04-03T16:34:15;3.50;;;2.00;;
41101;SDS011;26845;50.190;19.178;2023-04-03T16:36:54;3.00;;;1.70;;
41101;SDS011;26845;50.190;19.178;2023-04-03T16:39:35;3.10;;;1.70;;
41101;SDS011;26845;50.190;19.178;2023-04-03T16:42:15;3.10;;;1.90;;
41101;SDS011;26845;50.190;19.178;2023-04-03T16:44:55;5.00;;;2.20;;
41101;SDS011;26845;50.190;19.178;2023-04-03T16:47:34;2.70;;;1.50;;
41101;SDS011;26845;50.190;19.178;2023-04-03T16:50:15;8.00;;;3.50;;
41101;SDS011;26845;50.190;19.178;2023-04-03T16:52:54;2.90;;;1.70;;
41101;SDS011;26845;50.190;19.178;2023-04-03T16:55:35;2.90;;;1.90;;
41101;SDS011;26845;50.190;19.178;2023-04-03T16:58:15;4.10;;;2.20;;
41101;SDS011;26845;50.190;19.178;2023-04-03T17:01:15;5.80;;;2.60;;
41101;SDS011;26845;50.190;19.178;2023-04-03T17:04:12;2.80;;;1.70;;
41101;SDS011;26845;50.190;19.178;2023-04-03T17:09:52;6.00;;;2.10;;
41101;SDS011;26845;50.190;19.178;2023-04-03T17:12:50;3.60;;;2.00;;
41101;SDS011;26845;50.190;19.178;2023-04-03T17:15:31;3.80;;;2.10;;
41101;SDS011;26845;50.190;19.178;2023-04-03T17:18:11;5.70;;;2.30;;
41101;SDS011;26845;50.190;19.178;2023-04-03T17:20:51;6.10;;;2.00;;
41101;SDS011;26845;50.190;19.178;2023-04-03T17:23:31;4.30;;;2.30;;
41101;SDS011;26845;50.190;19.178;2023-04-03T17:26:10;3.50;;;2.40;;
41101;SDS011;26845;50.190;19.178;2023-04-03T17:28:51;6.70;;;2.90;;
41101;SDS011;26845;50.190;19.178;2023-04-03T17:31:30;5.90;;;2.30;;
41101;SDS011;26845;50.190;19.178;2023-04-03T17:34:10;3.40;;;2.20;;
41101;SDS011;26845;50.190;19.178;2023-04-03T17:36:50;3.20;;;2.10;;
41101;SDS011;26845;50.190;19.178;2023-04-03T17:39:30;3.60;;;1.70;;
41101;SDS011;26845;50.190;19.178;2023-04-03T17:51:09;4.20;;;1.80;;
41101;SDS011;26845;50.190;19.178;2023-04-03T18:06:03;7.50;;;2.70;;
41101;SDS011;26845;50.190;19.178;2023-04-03T18:09:06;6.10;;;3.00;;
41101;SDS011;26845;50.190;19.178;2023-04-03T18:12:04;6.60;;;2.60;;
41101;SDS011;26845;50.190;19.178;2023-04-03T18:31:02;8.60;;;3.60;;
41101;SDS011;26845;50.190;19.178;2023-04-03T18:34:01;8.40;;;3.20;;
41101;SDS011;26845;50.190;19.178;2023-04-03T18:37:00;3.40;;;2.30;;
41101;SDS011;26845;50.190;19.178;2023-04-03T18:39:59;6.00;;;3.00;;
41101;SDS011;26845;50.190;19.178;2023-04-03T18:42:59;8.90;;;3.80;;
41101;SDS011;26845;50.190;19.178;2023-04-03T18:45:38;7.50;;;3.20;;
41101;SDS011;26845;50.190;19.178;2023-04-03T18:48:37;8.20;;;3.50;;
41101;SDS011;26845;50.190;19.178;2023-04-03T18:51:36;5.70;;;3.20;;
41101;SDS011;26845;50.190;19.178;2023-04-03T18:54:35;7.00;;;3.00;;
41101;SDS011;26845;50.190;19.178;2023-04-03T19:00:19;6.80;;;3.00;;
41101;SDS011;26845;50.190;19.178;2023-04-03T19:02:53;7.10;;;3.80;;
41101;SDS011;26845;50.190;19.178;2023-04-03T19:05:27;5.30;;;2.80;;
41101;SDS011;26845;50.190;19.178;2023-04-03T19:08:00;8.20;;;4.60;;
41101;SDS011;26845;50.190;19.178;2023-04-03T19:10:34;10.30;;;3.80;;
41101;SDS011;26845;50.190;19.178;2023-04-03T19:13:08;7.70;;;3.60;;
41101;SDS011;26845;50.190;19.178;2023-04-03T19:15:42;9.40;;;3.80;;
41101;SDS011;26845;50.190;19.178;2023-04-03T19:18:15;9.50;;;3.00;;
41101;SDS011;26845;50.190;19.178;2023-04-03T19:20:49;10.50;;;3.40;;
41101;SDS011;26845;50.190;19.178;2023-04-03T19:23:23;9.70;;;3.90;;
41101;SDS011;26845;50.190;19.178;2023-04-03T19:26:03;8.20;;;4.20;;
41101;SDS011;26845;50.190;19.178;2023-04-03T19:28:33;7.70;;;4.00;;
41101;SDS011;26845;50.190;19.178;2023-04-03T19:31:13;6.70;;;3.30;;
41101;SDS011;26845;50.190;19.178;2023-04-03T19:33:43;8.60;;;3.60;;
41101;SDS011;26845;50.190;19.178;2023-04-03T19:36:17;8.30;;;3.50;;
41101;SDS011;26845;50.190;19.178;2023-04-03T19:38:51;8.40;;;3.90;;
41101;SDS011;26845;50.190;19.178;2023-04-03T19:41:25;6.90;;;3.40;;
41101;SDS011;26845;50.190;19.178;2023-04-03T19:43:58;8.90;;;4.50;;
41101;SDS011;26845;50.190;19.178;2023-04-03T19:46:42;7.90;;;3.60;;
41101;SDS011;26845;50.190;19.178;2023-04-03T19:49:15;6.50;;;3.20;;
41101;SDS011;26845;50.190;19.178;2023-04-03T19:51:49;9.30;;;3.90;;
41101;SDS011;26845;50.190;19.178;2023-04-03T19:54:48;10.10;;;4.40;;
41101;SDS011;26845;50.190;19.178;2023-04-03T19:57:47;7.80;;;3.50;;
41101;SDS011;26845;50.190;19.178;2023-04-03T20:00:46;8.70;;;3.80;;
41101;SDS011;26845;50.190;19.178;2023-04-03T20:03:45;7.70;;;3.70;;
41101;SDS011;26845;50.190;19.178;2023-04-03T20:06:44;7.30;;;3.40;;
41101;SDS011;26845;50.190;19.178;2023-04-03T20:09:43;10.00;;;3.50;;
41101;SDS011;26845;50.190;19.178;2023-04-03T20:12:42;6.50;;;3.30;;
41101;SDS011;26845;50.190;19.178;2023-04-03T20:15:41;9.20;;;3.20;;
41101;SDS011;26845;50.190;19.178;2023-04-03T20:18:40;9.70;;;3.90;;
41101;SDS011;26845;50.190;19.178;2023-04-03T20:21:39;7.60;;;3.50;;
41101;SDS011;26845;50.190;19.178;2023-04-03T20:24:38;11.10;;;4.00;;
41101;SDS011;26845;50.190;19.178;2023-04-03T20:27:37;7.60;;;3.50;;
41101;SDS011;26845;50.190;19.178;2023-04-03T20:30:36;8.60;;;3.50;;
41101;SDS011;26845;50.190;19.178;2023-04-03T20:33:35;7.70;;;4.10;;
41101;SDS011;26845;50.190;19.178;2023-04-03T20:36:34;9.80;;;4.40;;
41101;SDS011;26845;50.190;19.178;2023-04-03T20:39:33;11.80;;;4.50;;
41101;SDS011;26845;50.190;19.178;2023-04-03T20:42:32;14.60;;;5.30;;
41101;SDS011;26845;50.190;19.178;2023-04-03T20:45:31;10.90;;;5.10;;
41101;SDS011;26845;50.190;19.178;2023-04-03T20:48:30;8.60;;;4.30;;
41101;SDS011;26845;50.190;19.178;2023-04-03T20:51:29;11.40;;;4.90;;
41101;SDS011;26845;50.190;19.178;2023-04-03T20:54:28;11.20;;;4.30;;
41101;SDS011;26845;50.190;19.178;2023-04-03T20:57:27;9.00;;;4.90;;
41101;SDS011;26845;50.190;19.178;2023-04-03T21:00:27;8.90;;;4.00;;
41101;SDS011;26845;50.190;19.178;2023-04-03T21:03:26;11.30;;;5.20;;
41101;SDS011;26845;50.190;19.178;2023-04-03T21:21:24;12.60;;;5.30;;
41101;SDS011;26845;50.190;19.178;2023-04-03T21:23:55;11.90;;;5.00;;
41101;SDS011;26845;50.190;19.178;2023-04-03T21:26:28;10.10;;;5.00;;
41101;SDS011;26845;50.190;19.178;2023-04-03T21:29:02;15.40;;;5.90;;
41101;SDS011;26845;50.190;19.178;2023-04-03T21:31:45;12.60;;;5.70;;
41101;SDS011;26845;50.190;19.178;2023-04-03T21:34:19;10.30;;;5.20;;
41101;SDS011;26845;50.190;19.178;2023-04-03T21:36:52;13.50;;;5.20;;
41101;SDS011;26845;50.190;19.178;2023-04-03T21:39:25;12.80;;;5.20;;
41101;SDS011;26845;50.190;19.178;2023-04-03T21:41:59;8.60;;;4.80;;
41101;SDS011;26845;50.190;19.178;2023-04-03T21:44:33;12.20;;;5.50;;
41101;SDS011;26845;50.190;19.178;2023-04-03T21:47:07;11.20;;;4.70;;
41101;SDS011;26845;50.190;19.178;2023-04-03T21:49:40;13.50;;;5.40;;
41101;SDS011;26845;50.190;19.178;2023-04-03T21:52:14;10.90;;;4.90;;
41101;SDS011;26845;50.190;19.178;2023-04-03T21:54:48;10.60;;;4.80;;
41101;SDS011;26845;50.190;19.178;2023-04-03T21:57:21;12.70;;;5.50;;
41101;SDS011;26845;50.190;19.178;2023-04-03T21:59:55;12.80;;;4.90;;
41101;SDS011;26845;50.190;19.178;2023-04-03T22:02:29;12.50;;;6.40;;
41101;SDS011;26845;50.190;19.178;2023-04-03T22:05:03;13.80;;;6.30;;
41101;SDS011;26845;50.190;19.178;2023-04-03T22:07:36;18.00;;;6.40;;
41101;SDS011;26845;50.190;19.178;2023-04-03T22:10:10;11.00;;;5.20;;
41101;SDS011;26845;50.190;19.178;2023-04-03T22:12:44;12.50;;;6.00;;
41101;SDS011;26845;50.190;19.178;2023-04-03T22:15:17;11.60;;;5.80;;
41101;SDS011;26845;50.190;19.178;2023-04-03T22:17:51;14.60;;;5.10;;
41101;SDS011;26845;50.190;19.178;2023-04-03T22:20:25;10.90;;;5.40;;
41101;SDS011;26845;50.190;19.178;2023-04-03T22:22:58;12.40;;;5.80;;
41101;SDS011;26845;50.190;19.178;2023-04-03T22:25:32;12.00;;;5.80;;
41101;SDS011;26845;50.190;19.178;2023-04-03T22:28:06;12.50;;;6.00;;
41101;SDS011;26845;50.190;19.178;2023-04-03T22:30:40;14.10;;;5.90;;
41101;SDS011;26845;50.190;19.178;2023-04-03T22:33:13;12.00;;;6.20;;
41101;SDS011;26845;50.190;19.178;2023-04-03T22:35:47;14.00;;;6.30;;
41101;SDS011;26845;50.190;19.178;2023-04-03T22:38:21;11.30;;;5.50;;
41101;SDS011;26845;50.190;19.178;2023-04-03T22:40:55;14.60;;;5.40;;
41101;SDS011;26845;50.190;19.178;2023-04-03T22:43:29;13.40;;;6.20;;
41101;SDS011;26845;50.190;19.178;2023-04-03T22:46:02;13.10;;;6.20;;
41101;SDS011;26845;50.190;19.178;2023-04-03T22:48:36;11.90;;;5.40;;
41101;SDS011;26845;50.190;19.178;2023-04-03T22:51:10;12.60;;;5.70;;
41101;SDS011;26845;50.190;19.178;2023-04-03T22:53:43;15.70;;;5.40;;
41101;SDS011;26845;50.190;19.178;2023-04-03T22:56:17;12.50;;;5.10;;
41101;SDS011;26845;50.190;19.178;2023-04-03T22:58:50;12.50;;;5.80;;
41101;SDS011;26845;50.190;19.178;2023-04-03T23:01:24;13.50;;;6.50;;
41101;SDS011;26845;50.190;19.178;2023-04-03T23:03:58;11.90;;;5.30;;
41101;SDS011;26845;50.190;19.178;2023-04-03T23:06:31;10.90;;;5.40;;
41101;SDS011;26845;50.190;19.178;2023-04-03T23:09:05;13.50;;;5.00;;
41101;SDS011;26845;50.190;19.178;2023-04-03T23:11:39;13.70;;;5.60;;
41101;SDS011;26845;50.190;19.178;2023-04-03T23:14:12;13.50;;;5.60;;
41101;SDS011;26845;50.190;19.178;2023-04-03T23:16:46;11.40;;;5.50;;
41101;SDS011;26845;50.190;19.178;2023-04-03T23:19:20;12.00;;;5.00;;
41101;SDS011;26845;50.190;19.178;2023-04-03T23:21:54;12.80;;;5.20;;
41101;SDS011;26845;50.190;19.178;2023-04-03T23:24:27;8.90;;;4.50;;
41101;SDS011;26845;50.190;19.178;2023-04-03T23:27:01;11.40;;;4.70;;
41101;SDS011;26845;50.190;19.178;2023-04-03T23:29:35;11.20;;;4.80;;
41101;SDS011;26845;50.190;19.178;2023-04-03T23:32:08;10.30;;;4.80;;
41101;SDS011;26845;50.190;19.178;2023-04-03T23:34:42;7.60;;;4.90;;
41101;SDS011;26845;50.190;19.178;2023-04-03T23:37:15;10.00;;;3.90;;
41101;SDS011;26845;50.190;19.178;2023-04-03T23:39:49;12.30;;;4.20;;
41101;SDS011;26845;50.190;19.178;2023-04-03T23:42:23;12.10;;;5.00;;
41101;SDS011;26845;50.190;19.178;2023-04-03T23:44:56;10.20;;;4.90;;
41101;SDS011;26845;50.190;19.178;2023-04-03T23:47:30;10.50;;;4.90;;
41101;SDS011;26845;50.190;19.178;2023-04-03T23:50:04;9.80;;;5.10;;
41101;SDS011;26845;50.190;19.178;2023-04-03T23:52:37;10.40;;;4.50;;
41101;SDS011;26845;50.190;19.178;2023-04-03T23:55:11;11.40;;;4.80;;
41101;SDS011;26845;50.190;19.178;2023-04-03T23:57:45;10.40;;;4.50;;
